»·PEaware :: DAL1023 KSFO-KLAS

DAL1023 :: KSFO-KLAS

FLIGHT INFORMATION

Flight Status: Arrived
Operator:
Delta Air Lines
More flights by this operator :: More flights under this callsign
Pilot: Matthew S. (33270)
Aircraft: AIRBUS A320
(A320)
More flights by this aircraft type
Origin: KSFO San Francisco Intl
United States
Destination: KLAS McCarran Intl
United States
More flights between these airports :: More routes between these airports
Route: SSTIK4 NTELL Q162 ESSAA BTY SUNST4
File this flight plan on PilotEdge
Remarks:
Altitude:
(Current/Filed)
37,000ft
Speed:
(Current/Filed)
446kts
Departed: 11-Jan-21 09:37 PM
Arrived: 11-Jan-21 10:42 PM
Distance/Time
Traveled:
359nm/1:05
Distance/Time
To Go:
Arrived

Flight Plot

Page will automatically refresh every two minutes.

Flight plan parsing failed; only flown route is shown


Map Options




Map Legend


Flown Route
Filed Route
Departure Airport
Arrival Airport
Navaid (VOR, NDB)
Fix

Horizontal Profiles

Position Reports

Time Latitude Longitude Heading Altitude Ground
Speed
11-Jan-21 21:13 37.612357 -122.384347 291 16ft 0kts
11-Jan-21 21:14 37.612357 -122.384347 291 16ft 0kts
11-Jan-21 21:15 37.612357 -122.384347 291 16ft 0kts
11-Jan-21 21:16 37.612357 -122.384347 291 16ft 0kts
11-Jan-21 21:17 37.612357 -122.384347 291 16ft 0kts
11-Jan-21 21:19 37.612357 -122.384347 291 16ft 0kts
11-Jan-21 21:20 37.612357 -122.384347 291 16ft 0kts
11-Jan-21 21:21 37.612357 -122.384347 291 16ft 0kts
11-Jan-21 21:22 37.612357 -122.384347 291 16ft 0kts
11-Jan-21 21:23 37.612357 -122.384347 291 16ft 0kts
11-Jan-21 21:24 37.612357 -122.384347 291 16ft 0kts
11-Jan-21 21:25 37.612357 -122.384347 291 16ft 0kts
11-Jan-21 21:27 37.612357 -122.384347 291 16ft 0kts
11-Jan-21 21:28 37.612357 -122.384347 291 16ft 0kts
11-Jan-21 21:29 37.612357 -122.384347 291 16ft 0kts
11-Jan-21 21:30 37.612357 -122.384347 291 16ft 0kts
11-Jan-21 21:31 37.612124 -122.383593 291 16ft 2kts
11-Jan-21 21:32 37.612110 -122.382928 221 17ft 0kts
11-Jan-21 21:33 37.612110 -122.382928 221 17ft 0kts
11-Jan-21 21:34 37.611995 -122.382982 195 17ft 4kts
11-Jan-21 21:35 37.609256 -122.383938 144 19ft 1kts
11-Jan-21 21:36 37.608509 -122.383564 155 21ft 6kts
11-Jan-21 21:37 37.616006 -122.377637 23 34ft 143kts
11-Jan-21 21:38 37.660118 -122.371178 355 2778ft 231kts
11-Jan-21 21:39 37.698844 -122.431320 252 7563ft 265kts
11-Jan-21 21:40 37.628863 -122.463205 177 11461ft 327kts
11-Jan-21 21:41 37.530697 -122.461880 171 14731ft 375kts
11-Jan-21 21:42 37.443296 -122.388700 132 18193ft 392kts
11-Jan-21 21:42 37.404416 -122.284779 103 19216ft 401kts
11-Jan-21 21:44 37.370637 -122.125166 102 22076ft 414kts
11-Jan-21 21:44 37.346646 -122.006283 102 24324ft 429kts
11-Jan-21 21:46 37.311642 -121.833802 102 27272ft 445kts
11-Jan-21 21:46 37.285731 -121.707018 101 29211ft 455kts
11-Jan-21 21:47 37.253708 -121.550871 101 31243ft 467kts
11-Jan-21 21:48 37.220836 -121.391633 100 33114ft 479kts
11-Jan-21 21:49 37.187002 -121.228969 100 35193ft 478kts
11-Jan-21 21:50 37.153465 -121.068772 99 37015ft 468kts
11-Jan-21 21:51 37.119953 -120.909258 99 37319ft 476kts
11-Jan-21 21:52 37.086080 -120.749432 99 37332ft 474kts
11-Jan-21 21:53 37.052026 -120.589841 99 37317ft 474kts
11-Jan-21 21:54 37.017804 -120.430702 99 37330ft 475kts
11-Jan-21 21:55 36.983247 -120.271130 98 37330ft 474kts
11-Jan-21 21:56 36.948643 -120.112405 98 37320ft 475kts
11-Jan-21 21:57 36.913674 -119.953002 98 37319ft 475kts
11-Jan-21 21:58 36.927184 -119.801224 59 37326ft 436kts
11-Jan-21 21:59 36.972992 -119.662203 58 37330ft 434kts
11-Jan-21 22:00 37.019149 -119.522858 58 37326ft 434kts
11-Jan-21 22:01 37.065139 -119.382555 58 37311ft 438kts
11-Jan-21 22:02 37.111300 -119.239922 59 37343ft 442kts
11-Jan-21 22:03 37.157350 -119.096735 60 37345ft 445kts
11-Jan-21 22:04 37.203634 -118.951377 59 37428ft 448kts
11-Jan-21 22:05 37.249671 -118.806248 59 37376ft 449kts
11-Jan-21 22:06 37.280898 -118.652255 72 37393ft 466kts
11-Jan-21 22:07 37.297342 -118.490810 73 37398ft 465kts
11-Jan-21 22:08 37.312120 -118.329845 73 37365ft 462kts
11-Jan-21 22:09 37.326410 -118.169794 73 37348ft 459kts
11-Jan-21 22:10 37.340443 -118.011426 73 37359ft 450kts
11-Jan-21 22:11 37.344802 -117.851979 83 37362ft 453kts
11-Jan-21 22:12 37.332501 -117.689194 86 37395ft 478kts
11-Jan-21 22:13 37.317849 -117.524046 86 37423ft 475kts
11-Jan-21 22:14 37.302698 -117.359999 88 37440ft 476kts
11-Jan-21 22:15 37.226894 -117.217462 133 37432ft 516kts
11-Jan-21 22:16 37.118238 -117.099698 134 37430ft 517kts
11-Jan-21 22:17 37.010154 -116.981548 134 37430ft 517kts
11-Jan-21 22:18 36.902374 -116.861545 134 35110ft 516kts
11-Jan-21 22:19 36.797672 -116.740042 130 32191ft 516kts
11-Jan-21 22:20 36.701944 -116.606803 129 29283ft 516kts
11-Jan-21 22:21 36.607558 -116.472424 129 26438ft 516kts
11-Jan-21 22:22 36.516113 -116.343010 130 23954ft 468kts
11-Jan-21 22:23 36.433939 -116.227296 130 21669ft 428kts
11-Jan-21 22:24 36.357559 -116.119865 130 19387ft 402kts
11-Jan-21 22:25 36.285676 -116.019143 130 17057ft 379kts
11-Jan-21 22:26 36.219980 -115.925224 121 15877ft 333kts
11-Jan-21 22:27 36.178290 -115.826431 111 14862ft 321kts
11-Jan-21 22:28 36.144276 -115.725132 109 14067ft 319kts
11-Jan-21 22:29 36.112618 -115.626656 109 13526ft 306kts
11-Jan-21 22:30 36.081050 -115.528706 109 12737ft 306kts
11-Jan-21 22:31 36.050033 -115.433279 110 11173ft 280kts
11-Jan-21 22:32 36.030229 -115.345439 96 10814ft 266kts
11-Jan-21 22:33 36.022194 -115.255228 93 9251ft 260kts
11-Jan-21 22:34 36.016416 -115.171269 92 8601ft 230kts
11-Jan-21 22:35 36.013709 -115.091629 78 7055ft 232kts
11-Jan-21 22:36 36.007283 -115.012792 95 6074ft 231kts
11-Jan-21 22:37 36.041399 -114.966324 340 5299ft 219kts
11-Jan-21 22:38 36.074973 -115.023569 274 3923ft 205kts
11-Jan-21 22:39 36.073972 -115.082268 267 2765ft 142kts
11-Jan-21 22:40 36.073674 -115.126945 268 2079ft 120kts
11-Jan-21 22:41 36.075170 -115.146483 321 2130ft 17kts
11-Jan-21 22:42 36.078164 -115.147229 326 2131ft 10kts
11-Jan-21 22:43 36.078238 -115.142934 93 2115ft 26kts
11-Jan-21 22:44 36.079826 -115.140654 58 2104ft 6kts
11-Jan-21 22:45 36.079914 -115.140448 61 2103ft 0kts
11-Jan-21 22:46 36.079914 -115.140448 61 2103ft 0kts
11-Jan-21 22:47 36.079914 -115.140448 61 2103ft 0kts

Navigation Log

Ident Type
Flight plan parsing failed, navigation log unavailable